sensor_id;sensor_type;location;lat;lon;timestamp;P1;durP1;ratioP1;P2;durP2;ratioP2
78489;SDS011;67776;52.012;4.736;2023-04-25T00:01:13;13.90;;;3.17;;
78489;SDS011;67776;52.012;4.736;2023-04-25T00:03:38;15.98;;;3.63;;
78489;SDS011;67776;52.012;4.736;2023-04-25T00:06:04;12.30;;;2.80;;
78489;SDS011;67776;52.012;4.736;2023-04-25T00:08:31;15.57;;;3.05;;
78489;SDS011;67776;52.012;4.736;2023-04-25T00:10:57;14.37;;;3.00;;
78489;SDS011;67776;52.012;4.736;2023-04-25T00:13:23;20.57;;;3.70;;
78489;SDS011;67776;52.012;4.736;2023-04-25T00:15:50;13.27;;;3.08;;
78489;SDS011;67776;52.012;4.736;2023-04-25T00:18:16;12.77;;;2.85;;
78489;SDS011;67776;52.012;4.736;2023-04-25T00:20:42;18.75;;;3.28;;
78489;SDS011;67776;52.012;4.736;2023-04-25T00:23:11;15.63;;;3.50;;
78489;SDS011;67776;52.012;4.736;2023-04-25T00:25:37;17.27;;;3.37;;
78489;SDS011;67776;52.012;4.736;2023-04-25T00:28:02;15.20;;;3.67;;
78489;SDS011;67776;52.012;4.736;2023-04-25T00:30:28;15.82;;;3.28;;
78489;SDS011;67776;52.012;4.736;2023-04-25T00:32:53;17.60;;;3.33;;
78489;SDS011;67776;52.012;4.736;2023-04-25T00:35:18;13.37;;;2.97;;
78489;SDS011;67776;52.012;4.736;2023-04-25T00:37:44;13.70;;;3.25;;
78489;SDS011;67776;52.012;4.736;2023-04-25T00:40:10;15.43;;;3.23;;
78489;SDS011;67776;52.012;4.736;2023-04-25T00:42:35;9.43;;;2.77;;
78489;SDS011;67776;52.012;4.736;2023-04-25T00:45:02;20.45;;;3.90;;
78489;SDS011;67776;52.012;4.736;2023-04-25T00:47:30;17.33;;;3.58;;
78489;SDS011;67776;52.012;4.736;2023-04-25T00:49:56;14.80;;;3.20;;
78489;SDS011;67776;52.012;4.736;2023-04-25T00:52:22;15.07;;;3.17;;
78489;SDS011;67776;52.012;4.736;2023-04-25T00:54:47;17.17;;;3.60;;
78489;SDS011;67776;52.012;4.736;2023-04-25T00:57:12;17.27;;;3.20;;
78489;SDS011;67776;52.012;4.736;2023-04-25T00:59:38;14.07;;;3.50;;
78489;SDS011;67776;52.012;4.736;2023-04-25T01:02:08;13.63;;;3.33;;
78489;SDS011;67776;52.012;4.736;2023-04-25T01:04:34;14.82;;;2.85;;
78489;SDS011;67776;52.012;4.736;2023-04-25T01:06:59;12.27;;;3.23;;
78489;SDS011;67776;52.012;4.736;2023-04-25T01:09:24;14.80;;;3.47;;
78489;SDS011;67776;52.012;4.736;2023-04-25T01:11:50;18.23;;;3.15;;
78489;SDS011;67776;52.012;4.736;2023-04-25T01:14:16;14.63;;;2.93;;
78489;SDS011;67776;52.012;4.736;2023-04-25T01:16:41;11.95;;;2.90;;
78489;SDS011;67776;52.012;4.736;2023-04-25T01:19:09;17.53;;;3.47;;
78489;SDS011;67776;52.012;4.736;2023-04-25T01:21:38;16.33;;;3.15;;
78489;SDS011;67776;52.012;4.736;2023-04-25T01:24:04;17.15;;;3.70;;
78489;SDS011;67776;52.012;4.736;2023-04-25T01:26:30;14.57;;;3.47;;
78489;SDS011;67776;52.012;4.736;2023-04-25T01:28:56;10.00;;;2.80;;
78489;SDS011;67776;52.012;4.736;2023-04-25T01:31:22;18.52;;;3.47;;
78489;SDS011;67776;52.012;4.736;2023-04-25T01:33:48;13.25;;;3.20;;
78489;SDS011;67776;52.012;4.736;2023-04-25T01:36:13;13.77;;;3.10;;
78489;SDS011;67776;52.012;4.736;2023-04-25T01:38:39;13.95;;;2.78;;
78489;SDS011;67776;52.012;4.736;2023-04-25T01:41:05;13.23;;;3.00;;
78489;SDS011;67776;52.012;4.736;2023-04-25T01:43:31;13.30;;;3.27;;
78489;SDS011;67776;52.012;4.736;2023-04-25T01:45:56;9.57;;;2.80;;
78489;SDS011;67776;52.012;4.736;2023-04-25T01:48:22;18.23;;;3.30;;
78489;SDS011;67776;52.012;4.736;2023-04-25T01:50:47;12.00;;;3.10;;
78489;SDS011;67776;52.012;4.736;2023-04-25T01:53:13;14.80;;;3.40;;
78489;SDS011;67776;52.012;4.736;2023-04-25T01:55:39;9.82;;;2.80;;
78489;SDS011;67776;52.012;4.736;2023-04-25T01:58:05;12.20;;;2.90;;
78489;SDS011;67776;52.012;4.736;2023-04-25T02:00:34;10.13;;;2.78;;
78489;SDS011;67776;52.012;4.736;2023-04-25T02:03:04;17.70;;;3.10;;
78489;SDS011;67776;52.012;4.736;2023-04-25T02:05:34;11.70;;;2.65;;
78489;SDS011;67776;52.012;4.736;2023-04-25T02:08:00;9.05;;;2.30;;
78489;SDS011;67776;52.012;4.736;2023-04-25T02:10:26;10.43;;;2.40;;
78489;SDS011;67776;52.012;4.736;2023-04-25T02:12:51;12.45;;;3.08;;
78489;SDS011;67776;52.012;4.736;2023-04-25T02:15:17;8.67;;;2.57;;
78489;SDS011;67776;52.012;4.736;2023-04-25T02:17:42;12.50;;;2.87;;
78489;SDS011;67776;52.012;4.736;2023-04-25T02:20:07;13.27;;;2.63;;
78489;SDS011;67776;52.012;4.736;2023-04-25T02:22:33;11.45;;;2.50;;
78489;SDS011;67776;52.012;4.736;2023-04-25T02:25:00;13.45;;;2.75;;
78489;SDS011;67776;52.012;4.736;2023-04-25T02:27:25;15.67;;;3.20;;
78489;SDS011;67776;52.012;4.736;2023-04-25T02:29:51;18.53;;;2.70;;
78489;SDS011;67776;52.012;4.736;2023-04-25T02:32:16;14.75;;;2.95;;
78489;SDS011;67776;52.012;4.736;2023-04-25T02:34:42;11.27;;;2.73;;
78489;SDS011;67776;52.012;4.736;2023-04-25T02:37:07;11.20;;;2.40;;
78489;SDS011;67776;52.012;4.736;2023-04-25T02:39:32;11.50;;;2.27;;
78489;SDS011;67776;52.012;4.736;2023-04-25T02:41:58;13.87;;;2.70;;
78489;SDS011;67776;52.012;4.736;2023-04-25T02:44:23;9.03;;;2.50;;
78489;SDS011;67776;52.012;4.736;2023-04-25T02:46:48;11.13;;;2.50;;
78489;SDS011;67776;52.012;4.736;2023-04-25T02:49:14;14.90;;;2.65;;
78489;SDS011;67776;52.012;4.736;2023-04-25T02:51:39;12.73;;;2.30;;
78489;SDS011;67776;52.012;4.736;2023-04-25T02:54:05;14.67;;;2.63;;
78489;SDS011;67776;52.012;4.736;2023-04-25T02:56:31;13.40;;;2.20;;
78489;SDS011;67776;52.012;4.736;2023-04-25T02:58:56;14.47;;;2.33;;
78489;SDS011;67776;52.012;4.736;2023-04-25T03:01:22;12.40;;;2.73;;
78489;SDS011;67776;52.012;4.736;2023-04-25T03:03:47;11.00;;;2.23;;
78489;SDS011;67776;52.012;4.736;2023-04-25T03:06:13;10.25;;;2.40;;
78489;SDS011;67776;52.012;4.736;2023-04-25T03:08:38;8.63;;;2.50;;
78489;SDS011;67776;52.012;4.736;2023-04-25T03:11:03;11.20;;;1.93;;
78489;SDS011;67776;52.012;4.736;2023-04-25T03:13:29;6.70;;;1.85;;
78489;SDS011;67776;52.012;4.736;2023-04-25T03:15:55;10.20;;;2.23;;
78489;SDS011;67776;52.012;4.736;2023-04-25T03:18:23;14.60;;;2.25;;
78489;SDS011;67776;52.012;4.736;2023-04-25T03:20:49;9.87;;;2.10;;
78489;SDS011;67776;52.012;4.736;2023-04-25T03:23:14;7.37;;;2.00;;
78489;SDS011;67776;52.012;4.736;2023-04-25T03:25:39;9.77;;;2.50;;
78489;SDS011;67776;52.012;4.736;2023-04-25T03:28:05;11.05;;;2.50;;
78489;SDS011;67776;52.012;4.736;2023-04-25T03:30:30;10.03;;;2.30;;
78489;SDS011;67776;52.012;4.736;2023-04-25T03:32:59;14.60;;;2.30;;
78489;SDS011;67776;52.012;4.736;2023-04-25T03:35:24;8.65;;;2.17;;
78489;SDS011;67776;52.012;4.736;2023-04-25T03:37:50;8.57;;;2.40;;
78489;SDS011;67776;52.012;4.736;2023-04-25T03:40:15;10.53;;;3.00;;
78489;SDS011;67776;52.012;4.736;2023-04-25T03:42:40;8.97;;;2.17;;
78489;SDS011;67776;52.012;4.736;2023-04-25T03:45:06;9.65;;;2.10;;
78489;SDS011;67776;52.012;4.736;2023-04-25T03:47:32;12.18;;;2.15;;
78489;SDS011;67776;52.012;4.736;2023-04-25T03:49:57;8.63;;;1.73;;
78489;SDS011;67776;52.012;4.736;2023-04-25T03:52:23;9.40;;;1.90;;
78489;SDS011;67776;52.012;4.736;2023-04-25T03:54:48;12.50;;;1.93;;
78489;SDS011;67776;52.012;4.736;2023-04-25T03:57:13;13.57;;;1.87;;
78489;SDS011;67776;52.012;4.736;2023-04-25T03:59:38;10.30;;;2.00;;
78489;SDS011;67776;52.012;4.736;2023-04-25T04:02:04;10.00;;;1.95;;
78489;SDS011;67776;52.012;4.736;2023-04-25T04:04:29;16.17;;;2.17;;
78489;SDS011;67776;52.012;4.736;2023-04-25T04:06:55;9.63;;;1.70;;
78489;SDS011;67776;52.012;4.736;2023-04-25T04:09:20;8.50;;;1.80;;
78489;SDS011;67776;52.012;4.736;2023-04-25T04:11:46;8.63;;;2.10;;
78489;SDS011;67776;52.012;4.736;2023-04-25T04:14:11;10.03;;;1.60;;
78489;SDS011;67776;52.012;4.736;2023-04-25T04:16:36;10.48;;;1.60;;
78489;SDS011;67776;52.012;4.736;2023-04-25T04:19:02;11.50;;;2.00;;
78489;SDS011;67776;52.012;4.736;2023-04-25T04:21:27;10.10;;;1.80;;
78489;SDS011;67776;52.012;4.736;2023-04-25T04:23:53;8.82;;;2.05;;
78489;SDS011;67776;52.012;4.736;2023-04-25T04:26:19;12.57;;;1.70;;
78489;SDS011;67776;52.012;4.736;2023-04-25T04:28:48;13.43;;;2.20;;
78489;SDS011;67776;52.012;4.736;2023-04-25T04:31:15;9.75;;;2.58;;
78489;SDS011;67776;52.012;4.736;2023-04-25T04:33:40;10.43;;;1.70;;
78489;SDS011;67776;52.012;4.736;2023-04-25T04:36:06;9.47;;;1.70;;
78489;SDS011;67776;52.012;4.736;2023-04-25T04:38:32;11.18;;;2.08;;
78489;SDS011;67776;52.012;4.736;2023-04-25T04:40:58;10.60;;;1.73;;
78489;SDS011;67776;52.012;4.736;2023-04-25T04:43:23;12.57;;;1.90;;
78489;SDS011;67776;52.012;4.736;2023-04-25T04:45:49;8.17;;;1.87;;
78489;SDS011;67776;52.012;4.736;2023-04-25T04:48:15;13.98;;;2.53;;
78489;SDS011;67776;52.012;4.736;2023-04-25T04:50:42;9.48;;;2.10;;
78489;SDS011;67776;52.012;4.736;2023-04-25T04:53:09;8.43;;;1.98;;
78489;SDS011;67776;52.012;4.736;2023-04-25T04:55:35;7.57;;;1.50;;
78489;SDS011;67776;52.012;4.736;2023-04-25T04:58:00;7.13;;;1.80;;
78489;SDS011;67776;52.012;4.736;2023-04-25T05:00:26;7.57;;;2.00;;
78489;SDS011;67776;52.012;4.736;2023-04-25T05:02:52;7.90;;;1.98;;
78489;SDS011;67776;52.012;4.736;2023-04-25T05:05:17;7.37;;;1.50;;
78489;SDS011;67776;52.012;4.736;2023-04-25T05:07:42;7.23;;;1.70;;
78489;SDS011;67776;52.012;4.736;2023-04-25T05:10:08;9.13;;;1.90;;
78489;SDS011;67776;52.012;4.736;2023-04-25T05:12:33;8.83;;;1.80;;
78489;SDS011;67776;52.012;4.736;2023-04-25T05:14:59;10.33;;;1.87;;
78489;SDS011;67776;52.012;4.736;2023-04-25T05:17:25;9.55;;;1.77;;
78489;SDS011;67776;52.012;4.736;2023-04-25T05:19:50;11.27;;;1.90;;
78489;SDS011;67776;52.012;4.736;2023-04-25T05:22:15;7.63;;;1.70;;
78489;SDS011;67776;52.012;4.736;2023-04-25T05:24:41;10.90;;;1.77;;
78489;SDS011;67776;52.012;4.736;2023-04-25T05:27:06;8.87;;;2.23;;
78489;SDS011;67776;52.012;4.736;2023-04-25T05:29:31;9.05;;;2.25;;
78489;SDS011;67776;52.012;4.736;2023-04-25T05:31:57;6.97;;;1.90;;
78489;SDS011;67776;52.012;4.736;2023-04-25T05:34:22;8.00;;;1.97;;
78489;SDS011;67776;52.012;4.736;2023-04-25T05:36:47;14.40;;;2.70;;
78489;SDS011;67776;52.012;4.736;2023-04-25T05:39:14;10.20;;;1.88;;
78489;SDS011;67776;52.012;4.736;2023-04-25T05:41:41;9.00;;;2.30;;
78489;SDS011;67776;52.012;4.736;2023-04-25T05:44:07;8.10;;;1.90;;
78489;SDS011;67776;52.012;4.736;2023-04-25T05:46:32;10.38;;;1.63;;
78489;SDS011;67776;52.012;4.736;2023-04-25T05:48:57;6.33;;;1.70;;
78489;SDS011;67776;52.012;4.736;2023-04-25T05:51:23;10.77;;;2.10;;
78489;SDS011;67776;52.012;4.736;2023-04-25T05:53:48;8.40;;;2.00;;
78489;SDS011;67776;52.012;4.736;2023-04-25T05:56:13;5.60;;;1.77;;
78489;SDS011;67776;52.012;4.736;2023-04-25T05:58:39;9.02;;;1.60;;
78489;SDS011;67776;52.012;4.736;2023-04-25T06:01:05;9.97;;;1.97;;
78489;SDS011;67776;52.012;4.736;2023-04-25T06:03:30;6.73;;;1.47;;
78489;SDS011;67776;52.012;4.736;2023-04-25T06:05:55;8.00;;;1.73;;
78489;SDS011;67776;52.012;4.736;2023-04-25T06:08:21;7.70;;;1.90;;
78489;SDS011;67776;52.012;4.736;2023-04-25T06:10:46;6.00;;;1.60;;
78489;SDS011;67776;52.012;4.736;2023-04-25T06:13:11;7.43;;;1.23;;
78489;SDS011;67776;52.012;4.736;2023-04-25T06:15:37;8.03;;;1.50;;
78489;SDS011;67776;52.012;4.736;2023-04-25T06:18:02;11.38;;;1.70;;
78489;SDS011;67776;52.012;4.736;2023-04-25T06:20:28;9.53;;;1.77;;
78489;SDS011;67776;52.012;4.736;2023-04-25T06:22:53;6.17;;;1.23;;
78489;SDS011;67776;52.012;4.736;2023-04-25T06:25:19;9.77;;;1.80;;
78489;SDS011;67776;52.012;4.736;2023-04-25T06:27:46;6.88;;;1.55;;
78489;SDS011;67776;52.012;4.736;2023-04-25T06:30:11;9.02;;;1.30;;
78489;SDS011;67776;52.012;4.736;2023-04-25T06:32:37;7.27;;;1.30;;
78489;SDS011;67776;52.012;4.736;2023-04-25T06:35:03;6.22;;;1.50;;
78489;SDS011;67776;52.012;4.736;2023-04-25T06:37:28;6.32;;;1.35;;
78489;SDS011;67776;52.012;4.736;2023-04-25T06:39:54;8.03;;;1.50;;
78489;SDS011;67776;52.012;4.736;2023-04-25T06:42:19;6.10;;;1.53;;
78489;SDS011;67776;52.012;4.736;2023-04-25T06:44:45;5.33;;;1.57;;
78489;SDS011;67776;52.012;4.736;2023-04-25T06:47:10;7.67;;;1.50;;
78489;SDS011;67776;52.012;4.736;2023-04-25T06:49:35;6.10;;;1.37;;
78489;SDS011;67776;52.012;4.736;2023-04-25T06:52:00;8.73;;;1.80;;
78489;SDS011;67776;52.012;4.736;2023-04-25T06:54:26;8.13;;;1.70;;
78489;SDS011;67776;52.012;4.736;2023-04-25T06:56:54;9.43;;;2.17;;
78489;SDS011;67776;52.012;4.736;2023-04-25T06:59:19;7.90;;;1.93;;
78489;SDS011;67776;52.012;4.736;2023-04-25T07:01:45;10.90;;;2.13;;
78489;SDS011;67776;52.012;4.736;2023-04-25T07:04:10;7.97;;;1.58;;
78489;SDS011;67776;52.012;4.736;2023-04-25T07:06:36;5.57;;;1.80;;
78489;SDS011;67776;52.012;4.736;2023-04-25T07:09:07;8.65;;;1.67;;
78489;SDS011;67776;52.012;4.736;2023-04-25T07:11:33;8.83;;;1.97;;
78489;SDS011;67776;52.012;4.736;2023-04-25T07:13:59;8.80;;;2.10;;
78489;SDS011;67776;52.012;4.736;2023-04-25T07:16:24;9.20;;;1.80;;
78489;SDS011;67776;52.012;4.736;2023-04-25T07:18:50;8.47;;;1.80;;
78489;SDS011;67776;52.012;4.736;2023-04-25T07:21:15;6.40;;;1.53;;
78489;SDS011;67776;52.012;4.736;2023-04-25T07:23:40;6.13;;;1.60;;
78489;SDS011;67776;52.012;4.736;2023-04-25T07:26:06;7.40;;;1.40;;
78489;SDS011;67776;52.012;4.736;2023-04-25T07:28:31;7.50;;;1.50;;
78489;SDS011;67776;52.012;4.736;2023-04-25T07:30:56;9.00;;;1.80;;
78489;SDS011;67776;52.012;4.736;2023-04-25T07:33:23;9.07;;;1.40;;
78489;SDS011;67776;52.012;4.736;2023-04-25T07:35:48;8.50;;;1.73;;
78489;SDS011;67776;52.012;4.736;2023-04-25T07:38:13;7.43;;;1.33;;
78489;SDS011;67776;52.012;4.736;2023-04-25T07:40:39;6.17;;;1.47;;
78489;SDS011;67776;52.012;4.736;2023-04-25T07:43:04;10.33;;;1.90;;
78489;SDS011;67776;52.012;4.736;2023-04-25T07:45:29;6.38;;;1.60;;
78489;SDS011;67776;52.012;4.736;2023-04-25T07:47:55;8.50;;;1.50;;
78489;SDS011;67776;52.012;4.736;2023-04-25T07:50:20;9.20;;;1.80;;
78489;SDS011;67776;52.012;4.736;2023-04-25T07:52:46;9.18;;;1.80;;
78489;SDS011;67776;52.012;4.736;2023-04-25T07:55:11;10.00;;;1.77;;
78489;SDS011;67776;52.012;4.736;2023-04-25T07:57:36;9.00;;;1.70;;
78489;SDS011;67776;52.012;4.736;2023-04-25T08:00:03;8.48;;;1.35;;
78489;SDS011;67776;52.012;4.736;2023-04-25T08:02:29;9.23;;;1.52;;
78489;SDS011;67776;52.012;4.736;2023-04-25T08:04:55;6.63;;;1.27;;
78489;SDS011;67776;52.012;4.736;2023-04-25T08:07:20;7.70;;;1.40;;
78489;SDS011;67776;52.012;4.736;2023-04-25T08:09:46;8.38;;;1.45;;
78489;SDS011;67776;52.012;4.736;2023-04-25T08:12:12;8.10;;;1.30;;
78489;SDS011;67776;52.012;4.736;2023-04-25T08:14:37;5.37;;;1.03;;
78489;SDS011;67776;52.012;4.736;2023-04-25T08:17:07;10.60;;;1.10;;
78489;SDS011;67776;52.012;4.736;2023-04-25T08:19:33;5.78;;;1.00;;
78489;SDS011;67776;52.012;4.736;2023-04-25T08:21:58;11.73;;;1.47;;
78489;SDS011;67776;52.012;4.736;2023-04-25T08:24:23;5.80;;;1.30;;
78489;SDS011;67776;52.012;4.736;2023-04-25T08:26:49;7.67;;;1.10;;
78489;SDS011;67776;52.012;4.736;2023-04-25T08:29:14;6.83;;;1.00;;
78489;SDS011;67776;52.012;4.736;2023-04-25T08:31:40;8.18;;;1.33;;
78489;SDS011;67776;52.012;4.736;2023-04-25T08:34:05;7.23;;;1.57;;
78489;SDS011;67776;52.012;4.736;2023-04-25T08:36:31;7.40;;;1.20;;
78489;SDS011;67776;52.012;4.736;2023-04-25T08:38:56;6.35;;;1.42;;
78489;SDS011;67776;52.012;4.736;2023-04-25T08:41:21;8.93;;;1.80;;
78489;SDS011;67776;52.012;4.736;2023-04-25T08:43:47;7.60;;;1.17;;
78489;SDS011;67776;52.012;4.736;2023-04-25T08:46:13;6.33;;;1.20;;
78489;SDS011;67776;52.012;4.736;2023-04-25T08:48:43;3.47;;;0.73;;
78489;SDS011;67776;52.012;4.736;2023-04-25T08:51:17;4.63;;;1.02;;
78489;SDS011;67776;52.012;4.736;2023-04-25T08:53:50;4.72;;;0.80;;
78489;SDS011;67776;52.012;4.736;2023-04-25T08:56:17;6.28;;;1.02;;
78489;SDS011;67776;52.012;4.736;2023-04-25T08:58:43;3.90;;;0.90;;
78489;SDS011;67776;52.012;4.736;2023-04-25T09:01:18;3.20;;;1.00;;
78489;SDS011;67776;52.012;4.736;2023-04-25T09:03:43;6.68;;;1.27;;
78489;SDS011;67776;52.012;4.736;2023-04-25T09:06:10;4.28;;;0.85;;
78489;SDS011;67776;52.012;4.736;2023-04-25T09:08:36;8.67;;;1.47;;
78489;SDS011;67776;52.012;4.736;2023-04-25T09:11:06;5.93;;;1.27;;
78489;SDS011;67776;52.012;4.736;2023-04-25T09:13:31;7.43;;;0.90;;
78489;SDS011;67776;52.012;4.736;2023-04-25T09:15:57;4.10;;;0.73;;
78489;SDS011;67776;52.012;4.736;2023-04-25T09:18:23;5.47;;;1.00;;
78489;SDS011;67776;52.012;4.736;2023-04-25T09:21:04;5.80;;;0.80;;
78489;SDS011;67776;52.012;4.736;2023-04-25T09:23:46;3.37;;;0.80;;
78489;SDS011;67776;52.012;4.736;2023-04-25T09:26:16;6.45;;;1.10;;
78489;SDS011;67776;52.012;4.736;2023-04-25T09:28:43;4.93;;;1.20;;
78489;SDS011;67776;52.012;4.736;2023-04-25T09:31:11;4.77;;;0.90;;
78489;SDS011;67776;52.012;4.736;2023-04-25T09:33:37;4.70;;;1.02;;
78489;SDS011;67776;52.012;4.736;2023-04-25T09:36:06;3.22;;;0.80;;
78489;SDS011;67776;52.012;4.736;2023-04-25T09:38:40;5.73;;;1.10;;
78489;SDS011;67776;52.012;4.736;2023-04-25T09:41:07;2.92;;;0.93;;
78489;SDS011;67776;52.012;4.736;2023-04-25T09:43:34;6.47;;;1.40;;
78489;SDS011;67776;52.012;4.736;2023-04-25T09:45:59;3.00;;;0.70;;
78489;SDS011;67776;52.012;4.736;2023-04-25T09:48:26;3.38;;;0.90;;
78489;SDS011;67776;52.012;4.736;2023-04-25T09:51:12;5.10;;;1.10;;
78489;SDS011;67776;52.012;4.736;2023-04-25T09:53:44;4.22;;;1.10;;
78489;SDS011;67776;52.012;4.736;2023-04-25T09:56:14;5.07;;;1.00;;
78489;SDS011;67776;52.012;4.736;2023-04-25T09:58:49;4.45;;;1.00;;
78489;SDS011;67776;52.012;4.736;2023-04-25T10:01:18;4.55;;;1.10;;
78489;SDS011;67776;52.012;4.736;2023-04-25T10:03:45;4.57;;;1.07;;
78489;SDS011;67776;52.012;4.736;2023-04-25T10:06:18;2.90;;;0.90;;
78489;SDS011;67776;52.012;4.736;2023-04-25T10:08:45;6.50;;;1.05;;
78489;SDS011;67776;52.012;4.736;2023-04-25T10:11:17;7.90;;;1.52;;
78489;SDS011;67776;52.012;4.736;2023-04-25T10:13:43;5.43;;;1.27;;
78489;SDS011;67776;52.012;4.736;2023-04-25T10:16:09;6.43;;;1.30;;
78489;SDS011;67776;52.012;4.736;2023-04-25T10:18:35;8.05;;;1.30;;
78489;SDS011;67776;52.012;4.736;2023-04-25T10:21:01;5.03;;;1.83;;
78489;SDS011;67776;52.012;4.736;2023-04-25T10:23:29;5.18;;;1.30;;
78489;SDS011;67776;52.012;4.736;2023-04-25T10:25:56;5.22;;;1.10;;
78489;SDS011;67776;52.012;4.736;2023-04-25T10:28:23;6.32;;;1.10;;
78489;SDS011;67776;52.012;4.736;2023-04-25T10:30:58;8.77;;;1.73;;
78489;SDS011;67776;52.012;4.736;2023-04-25T10:33:38;7.20;;;1.40;;
78489;SDS011;67776;52.012;4.736;2023-04-25T10:36:18;7.95;;;1.40;;
78489;SDS011;67776;52.012;4.736;2023-04-25T10:38:47;6.30;;;1.30;;
78489;SDS011;67776;52.012;4.736;2023-04-25T10:41:15;6.78;;;1.55;;
78489;SDS011;67776;52.012;4.736;2023-04-25T10:43:45;4.63;;;1.20;;
78489;SDS011;67776;52.012;4.736;2023-04-25T10:46:29;5.10;;;1.13;;
78489;SDS011;67776;52.012;4.736;2023-04-25T10:48:56;5.32;;;1.33;;
78489;SDS011;67776;52.012;4.736;2023-04-25T10:51:26;7.13;;;1.40;;
78489;SDS011;67776;52.012;4.736;2023-04-25T10:53:59;6.65;;;1.02;;
78489;SDS011;67776;52.012;4.736;2023-04-25T10:56:33;4.65;;;1.00;;
78489;SDS011;67776;52.012;4.736;2023-04-25T11:04:20;4.33;;;1.13;;
78489;SDS011;67776;52.012;4.736;2023-04-25T11:06:54;5.85;;;1.30;;
78489;SDS011;67776;52.012;4.736;2023-04-25T11:09:35;7.50;;;1.38;;
78489;SDS011;67776;52.012;4.736;2023-04-25T11:12:01;8.82;;;1.48;;
78489;SDS011;67776;52.012;4.736;2023-04-25T11:14:26;6.37;;;1.20;;
78489;SDS011;67776;52.012;4.736;2023-04-25T11:16:52;8.02;;;1.20;;
78489;SDS011;67776;52.012;4.736;2023-04-25T11:19:20;8.17;;;1.30;;
78489;SDS011;67776;52.012;4.736;2023-04-25T11:21:46;8.75;;;1.30;;
78489;SDS011;67776;52.012;4.736;2023-04-25T11:24:11;5.93;;;1.10;;
78489;SDS011;67776;52.012;4.736;2023-04-25T11:26:37;7.63;;;1.20;;
78489;SDS011;67776;52.012;4.736;2023-04-25T11:29:02;4.80;;;1.27;;
78489;SDS011;67776;52.012;4.736;2023-04-25T11:31:28;6.13;;;1.30;;
78489;SDS011;67776;52.012;4.736;2023-04-25T11:33:54;9.45;;;1.42;;
78489;SDS011;67776;52.012;4.736;2023-04-25T11:36:22;4.90;;;1.30;;
78489;SDS011;67776;52.012;4.736;2023-04-25T11:38:49;5.43;;;1.00;;
78489;SDS011;67776;52.012;4.736;2023-04-25T11:41:16;4.97;;;1.10;;
78489;SDS011;67776;52.012;4.736;2023-04-25T11:43:44;6.23;;;1.13;;
78489;SDS011;67776;52.012;4.736;2023-04-25T11:46:10;5.82;;;1.30;;
78489;SDS011;67776;52.012;4.736;2023-04-25T11:48:36;4.78;;;1.30;;
78489;SDS011;67776;52.012;4.736;2023-04-25T11:51:03;7.35;;;1.50;;
78489;SDS011;67776;52.012;4.736;2023-04-25T11:53:29;5.18;;;1.33;;
78489;SDS011;67776;52.012;4.736;2023-04-25T11:55:54;5.87;;;1.63;;
78489;SDS011;67776;52.012;4.736;2023-04-25T11:58:22;8.35;;;1.40;;
78489;SDS011;67776;52.012;4.736;2023-04-25T12:00:48;7.00;;;1.63;;
78489;SDS011;67776;52.012;4.736;2023-04-25T12:03:13;9.63;;;1.75;;
78489;SDS011;67776;52.012;4.736;2023-04-25T12:05:38;6.17;;;1.70;;
78489;SDS011;67776;52.012;4.736;2023-04-25T12:08:14;5.75;;;1.60;;
78489;SDS011;67776;52.012;4.736;2023-04-25T12:10:42;5.37;;;1.47;;
78489;SDS011;67776;52.012;4.736;2023-04-25T12:15:44;7.38;;;1.33;;
78489;SDS011;67776;52.012;4.736;2023-04-25T12:18:09;5.77;;;1.40;;
78489;SDS011;67776;52.012;4.736;2023-04-25T12:20:35;6.35;;;1.33;;
78489;SDS011;67776;52.012;4.736;2023-04-25T12:23:01;3.67;;;1.10;;
78489;SDS011;67776;52.012;4.736;2023-04-25T12:25:37;5.80;;;1.40;;
78489;SDS011;67776;52.012;4.736;2023-04-25T12:28:10;5.07;;;1.60;;
78489;SDS011;67776;52.012;4.736;2023-04-25T12:33:18;5.22;;;1.50;;
78489;SDS011;67776;52.012;4.736;2023-04-25T12:35:43;7.27;;;1.33;;
78489;SDS011;67776;52.012;4.736;2023-04-25T12:38:09;6.63;;;1.30;;
78489;SDS011;67776;52.012;4.736;2023-04-25T12:40:34;6.60;;;1.30;;
78489;SDS011;67776;52.012;4.736;2023-04-25T12:42:59;6.53;;;1.57;;
78489;SDS011;67776;52.012;4.736;2023-04-25T12:45:25;6.87;;;1.30;;
78489;SDS011;67776;52.012;4.736;2023-04-25T12:47:50;7.57;;;1.50;;
78489;SDS011;67776;52.012;4.736;2023-04-25T12:50:16;5.73;;;1.20;;
78489;SDS011;67776;52.012;4.736;2023-04-25T12:52:41;7.83;;;1.37;;
78489;SDS011;67776;52.012;4.736;2023-04-25T12:55:06;5.67;;;1.33;;
78489;SDS011;67776;52.012;4.736;2023-04-25T12:57:32;6.18;;;1.40;;
78489;SDS011;67776;52.012;4.736;2023-04-25T12:59:57;5.23;;;1.40;;
78489;SDS011;67776;52.012;4.736;2023-04-25T13:02:22;5.40;;;1.50;;
78489;SDS011;67776;52.012;4.736;2023-04-25T13:04:48;7.17;;;1.70;;
78489;SDS011;67776;52.012;4.736;2023-04-25T13:07:13;9.63;;;1.93;;
78489;SDS011;67776;52.012;4.736;2023-04-25T13:09:38;8.83;;;1.80;;
78489;SDS011;67776;52.012;4.736;2023-04-25T13:12:04;7.20;;;1.90;;
78489;SDS011;67776;52.012;4.736;2023-04-25T13:14:30;6.43;;;1.45;;
78489;SDS011;67776;52.012;4.736;2023-04-25T13:16:55;6.25;;;1.90;;
78489;SDS011;67776;52.012;4.736;2023-04-25T13:19:21;6.50;;;1.73;;
78489;SDS011;67776;52.012;4.736;2023-04-25T13:21:46;7.03;;;1.70;;
78489;SDS011;67776;52.012;4.736;2023-04-25T13:24:11;4.50;;;1.70;;
78489;SDS011;67776;52.012;4.736;2023-04-25T13:26:37;8.00;;;1.67;;
78489;SDS011;67776;52.012;4.736;2023-04-25T13:29:02;6.37;;;1.70;;
78489;SDS011;67776;52.012;4.736;2023-04-25T13:31:28;4.53;;;1.50;;
78489;SDS011;67776;52.012;4.736;2023-04-25T13:33:54;9.07;;;1.80;;
78489;SDS011;67776;52.012;4.736;2023-04-25T13:36:23;6.70;;;1.40;;
78489;SDS011;67776;52.012;4.736;2023-04-25T13:38:49;6.63;;;1.60;;
78489;SDS011;67776;52.012;4.736;2023-04-25T13:41:14;6.43;;;1.50;;
78489;SDS011;67776;52.012;4.736;2023-04-25T13:43:43;8.13;;;1.58;;
78489;SDS011;67776;52.012;4.736;2023-04-25T13:46:09;4.97;;;1.20;;
78489;SDS011;67776;52.012;4.736;2023-04-25T13:48:36;6.47;;;1.50;;
78489;SDS011;67776;52.012;4.736;2023-04-25T13:51:02;7.70;;;1.80;;
78489;SDS011;67776;52.012;4.736;2023-04-25T13:53:27;7.53;;;1.60;;
78489;SDS011;67776;52.012;4.736;2023-04-25T13:55:52;5.17;;;1.63;;
78489;SDS011;67776;52.012;4.736;2023-04-25T13:58:18;6.20;;;1.33;;
78489;SDS011;67776;52.012;4.736;2023-04-25T14:00:45;6.43;;;1.55;;
78489;SDS011;67776;52.012;4.736;2023-04-25T14:03:12;6.85;;;1.80;;
78489;SDS011;67776;52.012;4.736;2023-04-25T14:05:37;5.97;;;1.60;;
78489;SDS011;67776;52.012;4.736;2023-04-25T14:08:03;7.38;;;1.80;;
78489;SDS011;67776;52.012;4.736;2023-04-25T14:10:30;4.73;;;1.40;;
78489;SDS011;67776;52.012;4.736;2023-04-25T14:12:55;6.07;;;1.42;;
78489;SDS011;67776;52.012;4.736;2023-04-25T14:15:20;6.07;;;1.90;;
78489;SDS011;67776;52.012;4.736;2023-04-25T14:17:46;6.47;;;1.70;;
78489;SDS011;67776;52.012;4.736;2023-04-25T14:20:13;5.32;;;1.80;;
78489;SDS011;67776;52.012;4.736;2023-04-25T14:22:38;4.60;;;1.73;;
78489;SDS011;67776;52.012;4.736;2023-04-25T14:25:07;6.05;;;1.70;;
78489;SDS011;67776;52.012;4.736;2023-04-25T14:27:34;5.50;;;1.38;;
78489;SDS011;67776;52.012;4.736;2023-04-25T14:29:59;6.40;;;1.30;;
78489;SDS011;67776;52.012;4.736;2023-04-25T14:32:24;4.93;;;1.40;;
78489;SDS011;67776;52.012;4.736;2023-04-25T14:34:49;7.00;;;1.80;;
78489;SDS011;67776;52.012;4.736;2023-04-25T14:37:15;7.63;;;1.88;;
78489;SDS011;67776;52.012;4.736;2023-04-25T14:39:41;4.17;;;1.20;;
78489;SDS011;67776;52.012;4.736;2023-04-25T14:42:06;5.87;;;1.40;;
78489;SDS011;67776;52.012;4.736;2023-04-25T14:44:31;4.67;;;1.53;;
78489;SDS011;67776;52.012;4.736;2023-04-25T14:46:57;6.63;;;1.60;;
78489;SDS011;67776;52.012;4.736;2023-04-25T14:49:22;5.50;;;1.20;;